sensor_id;sensor_type;location;lat;lon;timestamp;P1;durP1;ratioP1;P2;durP2;ratioP2
4519;SDS011;2272;49.226;8.108;2023-08-06T00:01:45;5.50;;;5.10;;
4519;SDS011;2272;49.226;8.108;2023-08-06T00:04:12;6.47;;;5.20;;
4519;SDS011;2272;49.226;8.108;2023-08-06T00:06:40;5.67;;;4.80;;
4519;SDS011;2272;49.226;8.108;2023-08-06T00:09:07;5.17;;;4.77;;
4519;SDS011;2272;49.226;8.108;2023-08-06T00:11:36;4.83;;;4.57;;
4519;SDS011;2272;49.226;8.108;2023-08-06T00:14:06;5.00;;;4.70;;
4519;SDS011;2272;49.226;8.108;2023-08-06T00:16:34;5.27;;;4.30;;
4519;SDS011;2272;49.226;8.108;2023-08-06T00:19:02;3.67;;;3.47;;
4519;SDS011;2272;49.226;8.108;2023-08-06T00:21:29;4.17;;;3.97;;
4519;SDS011;2272;49.226;8.108;2023-08-06T00:23:56;4.17;;;3.87;;
4519;SDS011;2272;49.226;8.108;2023-08-06T00:26:25;4.03;;;3.73;;
4519;SDS011;2272;49.226;8.108;2023-08-06T00:28:54;4.57;;;4.33;;
4519;SDS011;2272;49.226;8.108;2023-08-06T00:31:21;4.53;;;3.90;;
4519;SDS011;2272;49.226;8.108;2023-08-06T00:33:49;4.53;;;4.30;;
4519;SDS011;2272;49.226;8.108;2023-08-06T00:36:16;4.00;;;3.80;;
4519;SDS011;2272;49.226;8.108;2023-08-06T00:38:45;4.20;;;3.90;;
4519;SDS011;2272;49.226;8.108;2023-08-06T00:41:13;3.70;;;3.50;;
4519;SDS011;2272;49.226;8.108;2023-08-06T00:43:42;3.03;;;2.93;;
4519;SDS011;2272;49.226;8.108;2023-08-06T00:46:12;3.47;;;3.27;;
4519;SDS011;2272;49.226;8.108;2023-08-06T00:48:40;3.23;;;3.10;;
4519;SDS011;2272;49.226;8.108;2023-08-06T00:51:09;3.23;;;3.13;;
4519;SDS011;2272;49.226;8.108;2023-08-06T00:53:39;3.23;;;3.03;;
4519;SDS011;2272;49.226;8.108;2023-08-06T00:56:07;3.50;;;3.10;;
4519;SDS011;2272;49.226;8.108;2023-08-06T00:58:35;3.93;;;3.00;;
4519;SDS011;2272;49.226;8.108;2023-08-06T01:01:04;4.20;;;3.10;;
4519;SDS011;2272;49.226;8.108;2023-08-06T01:03:33;3.00;;;2.80;;
4519;SDS011;2272;49.226;8.108;2023-08-06T01:06:01;2.83;;;2.73;;
4519;SDS011;2272;49.226;8.108;2023-08-06T01:08:36;6.00;;;4.30;;
4519;SDS011;2272;49.226;8.108;2023-08-06T01:11:14;4.20;;;3.90;;
4519;SDS011;2272;49.226;8.108;2023-08-06T01:13:49;4.87;;;4.47;;
4519;SDS011;2272;49.226;8.108;2023-08-06T01:16:20;8.23;;;6.00;;
4519;SDS011;2272;49.226;8.108;2023-08-06T01:18:51;7.33;;;5.77;;
4519;SDS011;2272;49.226;8.108;2023-08-06T01:21:19;7.27;;;5.43;;
4519;SDS011;2272;49.226;8.108;2023-08-06T01:23:46;5.43;;;4.97;;
4519;SDS011;2272;49.226;8.108;2023-08-06T01:26:18;5.40;;;5.00;;
4519;SDS011;2272;49.226;8.108;2023-08-06T01:28:48;5.00;;;4.50;;
4519;SDS011;2272;49.226;8.108;2023-08-06T01:31:21;4.50;;;4.10;;
4519;SDS011;2272;49.226;8.108;2023-08-06T01:33:53;3.77;;;3.23;;
4519;SDS011;2272;49.226;8.108;2023-08-06T01:36:22;10.73;;;3.17;;
4519;SDS011;2272;49.226;8.108;2023-08-06T01:38:51;3.70;;;2.53;;
4519;SDS011;2272;49.226;8.108;2023-08-06T01:41:19;2.50;;;2.30;;
4519;SDS011;2272;49.226;8.108;2023-08-06T01:43:46;4.70;;;2.93;;
4519;SDS011;2272;49.226;8.108;2023-08-06T01:46:13;15.47;;;2.83;;
4519;SDS011;2272;49.226;8.108;2023-08-06T01:48:42;4.10;;;2.93;;
4519;SDS011;2272;49.226;8.108;2023-08-06T01:51:09;2.97;;;2.77;;
4519;SDS011;2272;49.226;8.108;2023-08-06T01:53:37;4.83;;;3.00;;
4519;SDS011;2272;49.226;8.108;2023-08-06T01:56:04;6.97;;;2.97;;
4519;SDS011;2272;49.226;8.108;2023-08-06T01:58:31;4.77;;;2.70;;
4519;SDS011;2272;49.226;8.108;2023-08-06T02:01:00;7.90;;;2.83;;
4519;SDS011;2272;49.226;8.108;2023-08-06T02:03:28;3.77;;;3.43;;
4519;SDS011;2272;49.226;8.108;2023-08-06T02:05:55;3.17;;;2.97;;
4519;SDS011;2272;49.226;8.108;2023-08-06T02:08:23;7.93;;;3.30;;
4519;SDS011;2272;49.226;8.108;2023-08-06T02:10:51;4.10;;;2.80;;
4519;SDS011;2272;49.226;8.108;2023-08-06T02:13:18;2.77;;;2.67;;
4519;SDS011;2272;49.226;8.108;2023-08-06T02:15:47;4.47;;;2.50;;
4519;SDS011;2272;49.226;8.108;2023-08-06T02:18:16;2.90;;;2.70;;
4519;SDS011;2272;49.226;8.108;2023-08-06T02:20:44;6.30;;;3.10;;
4519;SDS011;2272;49.226;8.108;2023-08-06T02:23:21;5.77;;;3.33;;
4519;SDS011;2272;49.226;8.108;2023-08-06T02:25:48;5.07;;;2.57;;
4519;SDS011;2272;49.226;8.108;2023-08-06T02:28:16;5.47;;;2.63;;
4519;SDS011;2272;49.226;8.108;2023-08-06T02:30:49;9.37;;;2.33;;
4519;SDS011;2272;49.226;8.108;2023-08-06T02:33:18;4.33;;;2.00;;
4519;SDS011;2272;49.226;8.108;2023-08-06T02:35:45;4.23;;;2.13;;
4519;SDS011;2272;49.226;8.108;2023-08-06T02:38:11;7.80;;;2.27;;
4519;SDS011;2272;49.226;8.108;2023-08-06T02:40:42;4.83;;;1.97;;
4519;SDS011;2272;49.226;8.108;2023-08-06T02:43:10;2.00;;;1.50;;
4519;SDS011;2272;49.226;8.108;2023-08-06T02:45:39;4.67;;;1.90;;
4519;SDS011;2272;49.226;8.108;2023-08-06T02:48:06;2.40;;;1.60;;
4519;SDS011;2272;49.226;8.108;2023-08-06T02:50:37;3.00;;;1.37;;
4519;SDS011;2272;49.226;8.108;2023-08-06T02:53:05;4.17;;;1.60;;
4519;SDS011;2272;49.226;8.108;2023-08-06T02:55:34;3.13;;;1.30;;
4519;SDS011;2272;49.226;8.108;2023-08-06T02:58:02;6.07;;;1.90;;
4519;SDS011;2272;49.226;8.108;2023-08-06T03:00:31;10.13;;;2.40;;
4519;SDS011;2272;49.226;8.108;2023-08-06T03:03:01;15.73;;;2.03;;
4519;SDS011;2272;49.226;8.108;2023-08-06T03:05:30;2.33;;;2.13;;
4519;SDS011;2272;49.226;8.108;2023-08-06T03:07:56;2.57;;;2.17;;
4519;SDS011;2272;49.226;8.108;2023-08-06T03:10:26;2.00;;;1.90;;
4519;SDS011;2272;49.226;8.108;2023-08-06T03:12:54;4.07;;;1.60;;
4519;SDS011;2272;49.226;8.108;2023-08-06T03:15:21;4.23;;;1.83;;
4519;SDS011;2272;49.226;8.108;2023-08-06T03:17:50;9.60;;;2.50;;
4519;SDS011;2272;49.226;8.108;2023-08-06T03:20:19;3.90;;;2.80;;
4519;SDS011;2272;49.226;8.108;2023-08-06T03:22:50;13.57;;;2.43;;
4519;SDS011;2272;49.226;8.108;2023-08-06T03:25:17;9.37;;;3.07;;
4519;SDS011;2272;49.226;8.108;2023-08-06T03:27:46;2.60;;;2.50;;
4519;SDS011;2272;49.226;8.108;2023-08-06T03:30:13;5.63;;;2.37;;
4519;SDS011;2272;49.226;8.108;2023-08-06T03:32:39;1.67;;;1.57;;
4519;SDS011;2272;49.226;8.108;2023-08-06T03:35:06;1.27;;;1.10;;
4519;SDS011;2272;49.226;8.108;2023-08-06T03:37:35;2.13;;;1.40;;
4519;SDS011;2272;49.226;8.108;2023-08-06T03:40:03;5.03;;;1.53;;
4519;SDS011;2272;49.226;8.108;2023-08-06T03:42:33;1.70;;;1.10;;
4519;SDS011;2272;49.226;8.108;2023-08-06T03:45:00;1.33;;;1.00;;
4519;SDS011;2272;49.226;8.108;2023-08-06T03:47:26;2.40;;;1.00;;
4519;SDS011;2272;49.226;8.108;2023-08-06T03:49:53;1.43;;;0.93;;
4519;SDS011;2272;49.226;8.108;2023-08-06T03:52:20;0.60;;;0.60;;
4519;SDS011;2272;49.226;8.108;2023-08-06T03:54:48;1.70;;;0.87;;
4519;SDS011;2272;49.226;8.108;2023-08-06T03:57:14;1.43;;;0.77;;
4519;SDS011;2272;49.226;8.108;2023-08-06T03:59:42;1.63;;;0.77;;
4519;SDS011;2272;49.226;8.108;2023-08-06T04:02:09;1.03;;;0.80;;
4519;SDS011;2272;49.226;8.108;2023-08-06T04:04:36;1.13;;;0.70;;
4519;SDS011;2272;49.226;8.108;2023-08-06T04:07:05;4.20;;;1.10;;
4519;SDS011;2272;49.226;8.108;2023-08-06T04:09:31;2.53;;;0.70;;
4519;SDS011;2272;49.226;8.108;2023-08-06T04:12:00;0.67;;;0.67;;
4519;SDS011;2272;49.226;8.108;2023-08-06T04:14:29;2.13;;;0.90;;
4519;SDS011;2272;49.226;8.108;2023-08-06T04:16:57;2.10;;;0.70;;
4519;SDS011;2272;49.226;8.108;2023-08-06T04:19:23;1.40;;;0.90;;
4519;SDS011;2272;49.226;8.108;2023-08-06T04:21:50;1.57;;;0.83;;
4519;SDS011;2272;49.226;8.108;2023-08-06T04:24:17;3.53;;;1.10;;
4519;SDS011;2272;49.226;8.108;2023-08-06T04:26:44;3.43;;;0.90;;
4519;SDS011;2272;49.226;8.108;2023-08-06T04:29:12;3.37;;;0.90;;
4519;SDS011;2272;49.226;8.108;2023-08-06T04:31:38;0.70;;;0.70;;
4519;SDS011;2272;49.226;8.108;2023-08-06T04:34:05;1.53;;;0.97;;
4519;SDS011;2272;49.226;8.108;2023-08-06T04:36:33;1.47;;;0.90;;
4519;SDS011;2272;49.226;8.108;2023-08-06T04:38:59;2.10;;;1.33;;
4519;SDS011;2272;49.226;8.108;2023-08-06T04:41:26;2.77;;;1.00;;
4519;SDS011;2272;49.226;8.108;2023-08-06T04:43:56;1.53;;;1.00;;
4519;SDS011;2272;49.226;8.108;2023-08-06T04:46:26;4.10;;;0.87;;
4519;SDS011;2272;49.226;8.108;2023-08-06T04:48:53;2.60;;;0.70;;
4519;SDS011;2272;49.226;8.108;2023-08-06T04:51:21;6.33;;;0.90;;
4519;SDS011;2272;49.226;8.108;2023-08-06T04:53:50;1.60;;;0.90;;
4519;SDS011;2272;49.226;8.108;2023-08-06T04:56:16;1.30;;;1.20;;
4519;SDS011;2272;49.226;8.108;2023-08-06T04:58:44;4.17;;;1.30;;
4519;SDS011;2272;49.226;8.108;2023-08-06T05:01:12;1.27;;;0.80;;
4519;SDS011;2272;49.226;8.108;2023-08-06T05:03:43;7.20;;;1.23;;
4519;SDS011;2272;49.226;8.108;2023-08-06T05:06:10;1.83;;;1.13;;
4519;SDS011;2272;49.226;8.108;2023-08-06T05:08:37;4.97;;;1.00;;
4519;SDS011;2272;49.226;8.108;2023-08-06T05:11:04;2.47;;;1.00;;
4519;SDS011;2272;49.226;8.108;2023-08-06T05:13:30;3.73;;;1.13;;
4519;SDS011;2272;49.226;8.108;2023-08-06T05:15:57;4.73;;;0.80;;
4519;SDS011;2272;49.226;8.108;2023-08-06T05:18:24;2.23;;;1.00;;
4519;SDS011;2272;49.226;8.108;2023-08-06T05:20:52;5.23;;;1.10;;
4519;SDS011;2272;49.226;8.108;2023-08-06T05:23:18;6.20;;;2.10;;
4519;SDS011;2272;49.226;8.108;2023-08-06T05:25:45;1.40;;;0.83;;
4519;SDS011;2272;49.226;8.108;2023-08-06T05:28:12;1.23;;;0.90;;
4519;SDS011;2272;49.226;8.108;2023-08-06T05:30:39;1.00;;;0.90;;
4519;SDS011;2272;49.226;8.108;2023-08-06T05:33:05;1.77;;;1.03;;
4519;SDS011;2272;49.226;8.108;2023-08-06T05:35:32;2.10;;;0.80;;
4519;SDS011;2272;49.226;8.108;2023-08-06T05:38:00;4.63;;;0.70;;
4519;SDS011;2272;49.226;8.108;2023-08-06T05:40:27;1.87;;;0.70;;
4519;SDS011;2272;49.226;8.108;2023-08-06T05:42:54;4.00;;;1.03;;
4519;SDS011;2272;49.226;8.108;2023-08-06T05:45:21;2.30;;;0.70;;
4519;SDS011;2272;49.226;8.108;2023-08-06T05:47:47;4.40;;;0.80;;
4519;SDS011;2272;49.226;8.108;2023-08-06T05:50:14;0.80;;;0.60;;
4519;SDS011;2272;49.226;8.108;2023-08-06T05:52:41;0.70;;;0.70;;
4519;SDS011;2272;49.226;8.108;2023-08-06T05:55:09;2.50;;;0.60;;
4519;SDS011;2272;49.226;8.108;2023-08-06T05:57:36;0.70;;;0.60;;
4519;SDS011;2272;49.226;8.108;2023-08-06T06:00:03;1.37;;;0.70;;
4519;SDS011;2272;49.226;8.108;2023-08-06T06:02:31;2.20;;;0.50;;
4519;SDS011;2272;49.226;8.108;2023-08-06T06:04:57;1.17;;;0.80;;
4519;SDS011;2272;49.226;8.108;2023-08-06T06:07:24;0.73;;;0.60;;
4519;SDS011;2272;49.226;8.108;2023-08-06T06:09:51;0.73;;;0.60;;
4519;SDS011;2272;49.226;8.108;2023-08-06T06:12:19;0.70;;;0.70;;
4519;SDS011;2272;49.226;8.108;2023-08-06T06:14:47;1.00;;;0.70;;
4519;SDS011;2272;49.226;8.108;2023-08-06T06:17:14;0.80;;;0.60;;
4519;SDS011;2272;49.226;8.108;2023-08-06T06:19:40;0.73;;;0.60;;
4519;SDS011;2272;49.226;8.108;2023-08-06T06:22:07;0.63;;;0.63;;
4519;SDS011;2272;49.226;8.108;2023-08-06T06:24:34;0.83;;;0.70;;
4519;SDS011;2272;49.226;8.108;2023-08-06T06:27:01;1.17;;;0.60;;
4519;SDS011;2272;49.226;8.108;2023-08-06T06:29:29;4.13;;;0.87;;
4519;SDS011;2272;49.226;8.108;2023-08-06T06:31:55;0.50;;;0.50;;
4519;SDS011;2272;49.226;8.108;2023-08-06T06:34:22;2.80;;;0.57;;
4519;SDS011;2272;49.226;8.108;2023-08-06T06:36:49;0.80;;;0.50;;
4519;SDS011;2272;49.226;8.108;2023-08-06T06:39:15;0.50;;;0.50;;
4519;SDS011;2272;49.226;8.108;2023-08-06T06:41:43;0.80;;;0.60;;
4519;SDS011;2272;49.226;8.108;2023-08-06T06:44:10;0.57;;;0.57;;
4519;SDS011;2272;49.226;8.108;2023-08-06T06:46:38;0.50;;;0.50;;
4519;SDS011;2272;49.226;8.108;2023-08-06T06:49:05;2.30;;;0.50;;
4519;SDS011;2272;49.226;8.108;2023-08-06T06:51:31;0.50;;;0.50;;
4519;SDS011;2272;49.226;8.108;2023-08-06T06:53:58;0.50;;;0.50;;
4519;SDS011;2272;49.226;8.108;2023-08-06T06:56:25;1.47;;;0.63;;
4519;SDS011;2272;49.226;8.108;2023-08-06T06:58:52;0.50;;;0.47;;
4519;SDS011;2272;49.226;8.108;2023-08-06T07:01:19;0.50;;;0.50;;
4519;SDS011;2272;49.226;8.108;2023-08-06T07:03:47;0.50;;;0.50;;
4519;SDS011;2272;49.226;8.108;2023-08-06T07:06:13;1.10;;;0.50;;
4519;SDS011;2272;49.226;8.108;2023-08-06T07:08:40;0.50;;;0.50;;
4519;SDS011;2272;49.226;8.108;2023-08-06T07:11:07;0.90;;;0.60;;
4519;SDS011;2272;49.226;8.108;2023-08-06T07:13:34;0.60;;;0.50;;
4519;SDS011;2272;49.226;8.108;2023-08-06T07:16:04;1.30;;;0.70;;
4519;SDS011;2272;49.226;8.108;2023-08-06T07:18:31;0.50;;;0.50;;
4519;SDS011;2272;49.226;8.108;2023-08-06T07:20:59;0.50;;;0.50;;
4519;SDS011;2272;49.226;8.108;2023-08-06T07:23:25;0.50;;;0.50;;
4519;SDS011;2272;49.226;8.108;2023-08-06T07:25:52;2.70;;;0.70;;
4519;SDS011;2272;49.226;8.108;2023-08-06T07:28:19;0.93;;;0.80;;
4519;SDS011;2272;49.226;8.108;2023-08-06T07:30:47;0.50;;;0.50;;
4519;SDS011;2272;49.226;8.108;2023-08-06T07:33:14;0.87;;;0.50;;
4519;SDS011;2272;49.226;8.108;2023-08-06T07:35:40;0.50;;;0.50;;
4519;SDS011;2272;49.226;8.108;2023-08-06T07:38:09;0.70;;;0.70;;
4519;SDS011;2272;49.226;8.108;2023-08-06T07:40:36;0.50;;;0.50;;
4519;SDS011;2272;49.226;8.108;2023-08-06T07:43:03;1.37;;;0.50;;
4519;SDS011;2272;49.226;8.108;2023-08-06T07:45:32;3.60;;;0.50;;
4519;SDS011;2272;49.226;8.108;2023-08-06T07:47:59;0.60;;;0.60;;
4519;SDS011;2272;49.226;8.108;2023-08-06T07:50:26;0.70;;;0.70;;
4519;SDS011;2272;49.226;8.108;2023-08-06T07:52:53;0.50;;;0.50;;
4519;SDS011;2272;49.226;8.108;2023-08-06T07:55:21;0.50;;;0.50;;
4519;SDS011;2272;49.226;8.108;2023-08-06T07:57:48;0.50;;;0.50;;
4519;SDS011;2272;49.226;8.108;2023-08-06T08:00:14;0.60;;;0.60;;
4519;SDS011;2272;49.226;8.108;2023-08-06T08:02:41;0.80;;;0.77;;
4519;SDS011;2272;49.226;8.108;2023-08-06T08:05:08;0.53;;;0.53;;
4519;SDS011;2272;49.226;8.108;2023-08-06T08:07:34;1.43;;;0.50;;
4519;SDS011;2272;49.226;8.108;2023-08-06T08:10:01;3.73;;;0.50;;
4519;SDS011;2272;49.226;8.108;2023-08-06T08:12:31;0.53;;;0.53;;
4519;SDS011;2272;49.226;8.108;2023-08-06T08:14:58;0.50;;;0.50;;
4519;SDS011;2272;49.226;8.108;2023-08-06T08:17:24;0.93;;;0.50;;
4519;SDS011;2272;49.226;8.108;2023-08-06T08:19:51;0.83;;;0.50;;
4519;SDS011;2272;49.226;8.108;2023-08-06T08:22:18;0.60;;;0.50;;
4519;SDS011;2272;49.226;8.108;2023-08-06T08:24:45;0.50;;;0.40;;
4519;SDS011;2272;49.226;8.108;2023-08-06T08:27:11;0.50;;;0.50;;
4519;SDS011;2272;49.226;8.108;2023-08-06T08:29:39;0.60;;;0.47;;
4519;SDS011;2272;49.226;8.108;2023-08-06T08:32:06;0.60;;;0.53;;
4519;SDS011;2272;49.226;8.108;2023-08-06T08:34:33;0.60;;;0.50;;
4519;SDS011;2272;49.226;8.108;2023-08-06T08:36:59;1.00;;;0.60;;
4519;SDS011;2272;49.226;8.108;2023-08-06T08:39:26;1.00;;;0.53;;
4519;SDS011;2272;49.226;8.108;2023-08-06T08:41:53;0.60;;;0.60;;
4519;SDS011;2272;49.226;8.108;2023-08-06T08:44:19;1.03;;;0.50;;
4519;SDS011;2272;49.226;8.108;2023-08-06T08:46:48;0.60;;;0.60;;
4519;SDS011;2272;49.226;8.108;2023-08-06T08:49:15;0.70;;;0.60;;
4519;SDS011;2272;49.226;8.108;2023-08-06T08:51:42;0.50;;;0.50;;
4519;SDS011;2272;49.226;8.108;2023-08-06T08:54:11;1.63;;;0.60;;
4519;SDS011;2272;49.226;8.108;2023-08-06T08:56:41;0.60;;;0.60;;
4519;SDS011;2272;49.226;8.108;2023-08-06T08:59:09;0.50;;;0.50;;
4519;SDS011;2272;49.226;8.108;2023-08-06T09:01:36;0.97;;;0.60;;
4519;SDS011;2272;49.226;8.108;2023-08-06T09:04:05;0.50;;;0.50;;
4519;SDS011;2272;49.226;8.108;2023-08-06T09:06:33;0.50;;;0.50;;
4519;SDS011;2272;49.226;8.108;2023-08-06T09:09:11;1.00;;;0.50;;
4519;SDS011;2272;49.226;8.108;2023-08-06T09:11:42;1.00;;;0.50;;
4519;SDS011;2272;49.226;8.108;2023-08-06T09:14:10;0.50;;;0.50;;
4519;SDS011;2272;49.226;8.108;2023-08-06T09:16:38;0.60;;;0.60;;
4519;SDS011;2272;49.226;8.108;2023-08-06T09:19:09;1.27;;;0.50;;
4519;SDS011;2272;49.226;8.108;2023-08-06T09:21:37;0.60;;;0.60;;
4519;SDS011;2272;49.226;8.108;2023-08-06T09:24:07;0.60;;;0.60;;
4519;SDS011;2272;49.226;8.108;2023-08-06T09:26:36;0.80;;;0.63;;
4519;SDS011;2272;49.226;8.108;2023-08-06T09:29:04;0.50;;;0.50;;
4519;SDS011;2272;49.226;8.108;2023-08-06T09:31:33;0.50;;;0.50;;
4519;SDS011;2272;49.226;8.108;2023-08-06T09:34:09;0.50;;;0.50;;
4519;SDS011;2272;49.226;8.108;2023-08-06T09:36:41;0.50;;;0.50;;
4519;SDS011;2272;49.226;8.108;2023-08-06T09:39:17;0.50;;;0.50;;
4519;SDS011;2272;49.226;8.108;2023-08-06T09:41:45;0.60;;;0.50;;
4519;SDS011;2272;49.226;8.108;2023-08-06T09:44:15;0.93;;;0.60;;
4519;SDS011;2272;49.226;8.108;2023-08-06T09:46:43;0.50;;;0.50;;
4519;SDS011;2272;49.226;8.108;2023-08-06T09:49:15;0.87;;;0.60;;
4519;SDS011;2272;49.226;8.108;2023-08-06T09:51:41;0.60;;;0.60;;
4519;SDS011;2272;49.226;8.108;2023-08-06T09:54:10;0.63;;;0.63;;
4519;SDS011;2272;49.226;8.108;2023-08-06T09:56:39;0.60;;;0.60;;
4519;SDS011;2272;49.226;8.108;2023-08-06T09:59:06;0.60;;;0.57;;
4519;SDS011;2272;49.226;8.108;2023-08-06T10:01:35;0.70;;;0.50;;
4519;SDS011;2272;49.226;8.108;2023-08-06T10:04:02;0.50;;;0.50;;
4519;SDS011;2272;49.226;8.108;2023-08-06T10:06:33;0.50;;;0.40;;
4519;SDS011;2272;49.226;8.108;2023-08-06T10:09:01;0.50;;;0.50;;
4519;SDS011;2272;49.226;8.108;2023-08-06T10:11:28;0.57;;;0.57;;
4519;SDS011;2272;49.226;8.108;2023-08-06T10:13:57;2.70;;;0.70;;
4519;SDS011;2272;49.226;8.108;2023-08-06T10:16:29;3.70;;;0.60;;
4519;SDS011;2272;49.226;8.108;2023-08-06T10:18:56;0.60;;;0.60;;
4519;SDS011;2272;49.226;8.108;2023-08-06T10:21:24;0.60;;;0.60;;
4519;SDS011;2272;49.226;8.108;2023-08-06T10:23:54;0.80;;;0.70;;
4519;SDS011;2272;49.226;8.108;2023-08-06T10:26:24;1.47;;;0.80;;
4519;SDS011;2272;49.226;8.108;2023-08-06T10:28:51;0.60;;;0.60;;
4519;SDS011;2272;49.226;8.108;2023-08-06T10:31:18;1.30;;;0.70;;
4519;SDS011;2272;49.226;8.108;2023-08-06T10:33:45;0.80;;;0.80;;
4519;SDS011;2272;49.226;8.108;2023-08-06T10:36:13;1.00;;;0.90;;
4519;SDS011;2272;49.226;8.108;2023-08-06T10:38:44;0.70;;;0.70;;
4519;SDS011;2272;49.226;8.108;2023-08-06T10:41:16;1.20;;;1.10;;
4519;SDS011;2272;49.226;8.108;2023-08-06T10:43:49;0.80;;;0.80;;
4519;SDS011;2272;49.226;8.108;2023-08-06T10:46:23;1.20;;;1.03;;
4519;SDS011;2272;49.226;8.108;2023-08-06T10:48:53;2.70;;;0.97;;
4519;SDS011;2272;49.226;8.108;2023-08-06T10:51:20;0.93;;;0.93;;
4519;SDS011;2272;49.226;8.108;2023-08-06T10:53:47;3.07;;;1.10;;
4519;SDS011;2272;49.226;8.108;2023-08-06T10:56:17;0.80;;;0.80;;
4519;SDS011;2272;49.226;8.108;2023-08-06T10:58:47;17.20;;;1.27;;
4519;SDS011;2272;49.226;8.108;2023-08-06T11:01:14;1.37;;;1.27;;
4519;SDS011;2272;49.226;8.108;2023-08-06T11:03:41;3.30;;;1.03;;
4519;SDS011;2272;49.226;8.108;2023-08-06T11:06:09;1.10;;;1.10;;
4519;SDS011;2272;49.226;8.108;2023-08-06T11:08:37;1.30;;;1.17;;
4519;SDS011;2272;49.226;8.108;2023-08-06T11:11:08;1.93;;;0.93;;
4519;SDS011;2272;49.226;8.108;2023-08-06T11:13:37;1.43;;;1.30;;
4519;SDS011;2272;49.226;8.108;2023-08-06T11:16:04;1.57;;;1.37;;
4519;SDS011;2272;49.226;8.108;2023-08-06T11:18:31;3.37;;;1.70;;
4519;SDS011;2272;49.226;8.108;2023-08-06T11:20:59;1.67;;;1.57;;
4519;SDS011;2272;49.226;8.108;2023-08-06T11:23:26;5.13;;;1.47;;
4519;SDS011;2272;49.226;8.108;2023-08-06T11:25:54;2.30;;;1.27;;
4519;SDS011;2272;49.226;8.108;2023-08-06T11:28:21;4.70;;;1.13;;
4519;SDS011;2272;49.226;8.108;2023-08-06T11:30:50;1.27;;;1.27;;
4519;SDS011;2272;49.226;8.108;2023-08-06T11:33:19;0.90;;;0.90;;
4519;SDS011;2272;49.226;8.108;2023-08-06T11:35:47;2.13;;;1.53;;
4519;SDS011;2272;49.226;8.108;2023-08-06T11:38:15;4.87;;;1.50;;
4519;SDS011;2272;49.226;8.108;2023-08-06T11:40:43;1.30;;;1.20;;
4519;SDS011;2272;49.226;8.108;2023-08-06T11:43:10;2.43;;;1.77;;
4519;SDS011;2272;49.226;8.108;2023-08-06T11:45:38;1.33;;;1.23;;
4519;SDS011;2272;49.226;8.108;2023-08-06T11:48:08;1.90;;;1.33;;
4519;SDS011;2272;49.226;8.108;2023-08-06T11:50:36;3.50;;;3.20;;
4519;SDS011;2272;49.226;8.108;2023-08-06T11:53:04;1.63;;;1.50;;
4519;SDS011;2272;49.226;8.108;2023-08-06T11:55:31;1.83;;;1.73;;
4519;SDS011;2272;49.226;8.108;2023-08-06T11:57:59;2.40;;;1.80;;
4519;SDS011;2272;49.226;8.108;2023-08-06T12:00:30;1.93;;;1.40;;
4519;SDS011;2272;49.226;8.108;2023-08-06T12:02:57;1.60;;;1.60;;
4519;SDS011;2272;49.226;8.108;2023-08-06T12:05:30;3.17;;;1.80;;
4519;SDS011;2272;49.226;8.108;2023-08-06T12:07:59;2.90;;;2.23;;
4519;SDS011;2272;49.226;8.108;2023-08-06T12:10:26;8.33;;;2.10;;
4519;SDS011;2272;49.226;8.108;2023-08-06T12:12:54;4.63;;;2.40;;
4519;SDS011;2272;49.226;8.108;2023-08-06T12:15:22;4.73;;;2.07;;
4519;SDS011;2272;49.226;8.108;2023-08-06T12:17:49;3.03;;;1.70;;
4519;SDS011;2272;49.226;8.108;2023-08-06T12:20:16;3.60;;;1.70;;
4519;SDS011;2272;49.226;8.108;2023-08-06T12:22:44;3.73;;;2.30;;
4519;SDS011;2272;49.226;8.108;2023-08-06T12:25:12;3.27;;;1.60;;
4519;SDS011;2272;49.226;8.108;2023-08-06T12:27:40;4.83;;;1.60;;
4519;SDS011;2272;49.226;8.108;2023-08-06T12:30:08;1.50;;;1.40;;
4519;SDS011;2272;49.226;8.108;2023-08-06T12:32:37;9.47;;;2.23;;
4519;SDS011;2272;49.226;8.108;2023-08-06T12:35:04;8.53;;;1.53;;
4519;SDS011;2272;49.226;8.108;2023-08-06T12:37:33;2.97;;;1.63;;
4519;SDS011;2272;49.226;8.108;2023-08-06T12:40:02;2.37;;;1.87;;
4519;SDS011;2272;49.226;8.108;2023-08-06T12:42:29;2.07;;;1.70;;
4519;SDS011;2272;49.226;8.108;2023-08-06T12:44:56;2.60;;;1.50;;
4519;SDS011;2272;49.226;8.108;2023-08-06T12:47:23;4.40;;;1.70;;
4519;SDS011;2272;49.226;8.108;2023-08-06T12:49:50;6.40;;;1.27;;
4519;SDS011;2272;49.226;8.108;2023-08-06T12:52:16;2.40;;;1.37;;
4519;SDS011;2272;49.226;8.108;2023-08-06T12:54:44;1.40;;;1.30;;
4519;SDS011;2272;49.226;8.108;2023-08-06T12:57:13;1.30;;;1.17;;
4519;SDS011;2272;49.226;8.108;2023-08-06T12:59:40;2.47;;;1.30;;
4519;SDS011;2272;49.226;8.108;2023-08-06T13:02:06;1.20;;;1.20;;
4519;SDS011;2272;49.226;8.108;2023-08-06T13:04:33;2.80;;;1.37;;
4519;SDS011;2272;49.226;8.108;2023-08-06T13:07:00;1.80;;;1.33;;
4519;SDS011;2272;49.226;8.108;2023-08-06T13:09:27;1.20;;;1.10;;
4519;SDS011;2272;49.226;8.108;2023-08-06T13:11:54;1.73;;;1.17;;
4519;SDS011;2272;49.226;8.108;2023-08-06T13:14:22;3.03;;;1.10;;
4519;SDS011;2272;49.226;8.108;2023-08-06T13:16:49;1.43;;;1.00;;
4519;SDS011;2272;49.226;8.108;2023-08-06T13:19:16;1.10;;;1.10;;
4519;SDS011;2272;49.226;8.108;2023-08-06T13:21:58;1.90;;;0.97;;
4519;SDS011;2272;49.226;8.108;2023-08-06T13:24:26;1.17;;;1.17;;
4519;SDS011;2272;49.226;8.108;2023-08-06T13:26:53;0.90;;;0.90;;
4519;SDS011;2272;49.226;8.108;2023-08-06T13:29:20;0.90;;;0.90;;
4519;SDS011;2272;49.226;8.108;2023-08-06T13:31:48;1.53;;;1.43;;
4519;SDS011;2272;49.226;8.108;2023-08-06T13:34:15;1.13;;;0.90;;
4519;SDS011;2272;49.226;8.108;2023-08-06T13:36:42;1.00;;;1.00;;
4519;SDS011;2272;49.226;8.108;2023-08-06T13:39:09;1.30;;;1.20;;
4519;SDS011;2272;49.226;8.108;2023-08-06T13:41:37;1.57;;;1.20;;
4519;SDS011;2272;49.226;8.108;2023-08-06T13:44:04;1.30;;;1.20;;
4519;SDS011;2272;49.226;8.108;2023-08-06T13:46:33;3.30;;;1.47;;
4519;SDS011;2272;49.226;8.108;2023-08-06T13:48:59;1.97;;;1.27;;
4519;SDS011;2272;49.226;8.108;2023-08-06T13:51:26;0.90;;;0.90;;
4519;SDS011;2272;49.226;8.108;2023-08-06T13:53:53;2.10;;;1.10;;
4519;SDS011;2272;49.226;8.108;2023-08-06T13:56:21;1.47;;;0.87;;
4519;SDS011;2272;49.226;8.108;2023-08-06T13:58:48;0.90;;;0.90;;
4519;SDS011;2272;49.226;8.108;2023-08-06T14:01:17;0.90;;;0.90;;
4519;SDS011;2272;49.226;8.108;2023-08-06T14:03:47;1.00;;;1.00;;
4519;SDS011;2272;49.226;8.108;2023-08-06T14:06:16;1.47;;;0.90;;
4519;SDS011;2272;49.226;8.108;2023-08-06T14:08:44;5.70;;;1.57;;
4519;SDS011;2272;49.226;8.108;2023-08-06T14:11:13;5.93;;;1.50;;
4519;SDS011;2272;49.226;8.108;2023-08-06T14:13:41;1.13;;;1.03;;
4519;SDS011;2272;49.226;8.108;2023-08-06T14:16:11;0.97;;;0.97;;
4519;SDS011;2272;49.226;8.108;2023-08-06T14:18:40;1.10;;;1.10;;
4519;SDS011;2272;49.226;8.108;2023-08-06T14:21:09;1.10;;;1.00;;
4519;SDS011;2272;49.226;8.108;2023-08-06T14:23:39;1.37;;;1.27;;
4519;SDS011;2272;49.226;8.108;2023-08-06T14:26:08;1.30;;;1.00;;
4519;SDS011;2272;49.226;8.108;2023-08-06T14:28:40;2.10;;;1.40;;
4519;SDS011;2272;49.226;8.108;2023-08-06T14:31:08;2.00;;;1.23;;
4519;SDS011;2272;49.226;8.108;2023-08-06T14:33:37;1.83;;;1.20;;
4519;SDS011;2272;49.226;8.108;2023-08-06T14:36:06;2.03;;;1.13;;
4519;SDS011;2272;49.226;8.108;2023-08-06T14:38:35;1.90;;;1.30;;
4519;SDS011;2272;49.226;8.108;2023-08-06T14:41:04;1.17;;;1.07;;
4519;SDS011;2272;49.226;8.108;2023-08-06T14:43:31;7.00;;;1.57;;
4519;SDS011;2272;49.226;8.108;2023-08-06T14:45:58;1.00;;;1.00;;
4519;SDS011;2272;49.226;8.108;2023-08-06T14:48:25;2.40;;;1.30;;
4519;SDS011;2272;49.226;8.108;2023-08-06T14:50:53;1.60;;;1.50;;
4519;SDS011;2272;49.226;8.108;2023-08-06T14:53:21;1.23;;;1.03;;
4519;SDS011;2272;49.226;8.108;2023-08-06T14:55:49;1.53;;;1.20;;
4519;SDS011;2272;49.226;8.108;2023-08-06T14:58:19;1.40;;;1.03;;
4519;SDS011;2272;49.226;8.108;2023-08-06T15:00:48;10.60;;;1.20;;
4519;SDS011;2272;49.226;8.108;2023-08-06T15:03:18;0.90;;;0.90;;
4519;SDS011;2272;49.226;8.108;2023-08-06T15:05:46;1.10;;;1.10;;
4519;SDS011;2272;49.226;8.108;2023-08-06T15:08:13;1.30;;;1.20;;
4519;SDS011;2272;49.226;8.108;2023-08-06T15:10:43;1.83;;;1.10;;
4519;SDS011;2272;49.226;8.108;2023-08-06T15:13:18;3.87;;;1.00;;
4519;SDS011;2272;49.226;8.108;2023-08-06T15:15:48;1.80;;;1.00;;
4519;SDS011;2272;49.226;8.108;2023-08-06T15:18:17;1.60;;;1.50;;
4519;SDS011;2272;49.226;8.108;2023-08-06T15:20:47;2.23;;;1.33;;